Time;durP1;ratioP1;P1;durP2;ratioP2;P2;SDS_P1;SDS_P2;PMS_P1;PMS_P2;Temp;Humidity;BMP_temperature;BMP_pressure;BME280_temperature;BME280_humidity;BME280_pressure;Samples;Min_cycle;Max_cycle;Signal;HPM_P1;HPM_P2
2023/09/25 00:02:25;;;;;;;0.52;0.20;;;;;;;;;;4962060;28;20059;-70
2023/09/25 00:04:52;;;;;;;0.20;0.20;;;;;;;;;;4961317;28;20497;-70
2023/09/25 00:07:20;;;;;;;0.50;0.50;;;;;;;;;;4966573;28;20458;-69
2023/09/25 00:09:47;;;;;;;7.72;7.32;;;;;;;;;;4969604;28;20102;-69
2023/09/25 00:12:15;;;;;;;12.15;11.55;;;;;;;;;;4966816;28;20058;-70
2023/09/25 00:14:42;;;;;;;2.25;2.05;;;;;;;;;;4967742;28;20101;-70
2023/09/25 00:17:10;;;;;;;0.55;0.47;;;;;;;;;;4969920;28;20694;-69
2023/09/25 00:19:37;;;;;;;0.38;0.38;;;;;;;;;;4964233;28;20842;-69
2023/09/25 00:22:05;;;;;;;9.13;8.60;;;;;;;;;;4967260;28;20046;-69
2023/09/25 00:24:32;;;;;;;0.00;0.00;;;;;;;;;;4966043;28;20065;-70
2023/09/25 00:27:00;;;;;;;0.10;0.10;;;;;;;;;;4967335;28;20077;-69
2023/09/25 00:29:27;;;;;;;0.00;0.00;;;;;;;;;;4962648;28;20500;-70
2023/09/25 00:31:55;;;;;;;0.00;0.00;;;;;;;;;;4967889;28;20051;-70
2023/09/25 00:34:23;;;;;;;0.32;0.32;;;;;;;;;;4967463;28;20050;-70
2023/09/25 00:36:50;;;;;;;1.80;1.70;;;;;;;;;;4965428;28;20535;-70
2023/09/25 00:39:18;;;;;;;0.25;0.25;;;;;;;;;;4966754;28;20058;-69
2023/09/25 00:41:45;;;;;;;0.20;0.20;;;;;;;;;;4963065;28;20044;-69
2023/09/25 00:44:13;;;;;;;17.40;16.17;;;;;;;;;;4969538;28;20094;-70
2023/09/25 00:46:40;;;;;;;0.20;0.20;;;;;;;;;;4968046;28;20050;-69
2023/09/25 00:49:09;;;;;;;5.68;5.40;;;;;;;;;;4963453;28;20133;-69
2023/09/25 00:51:37;;;;;;;1.23;0.50;;;;;;;;;;4967691;28;20053;-69
2023/09/25 00:54:04;;;;;;;0.20;0.20;;;;;;;;;;4966148;28;20066;-68
2023/09/25 00:56:32;;;;;;;1.85;1.75;;;;;;;;;;4966048;28;20109;-69
2023/09/25 00:59:00;;;;;;;1.85;1.75;;;;;;;;;;4966218;28;20461;-69
2023/09/25 01:01:28;;;;;;;0.30;0.30;;;;;;;;;;4966389;28;20100;-69
2023/09/25 01:03:56;;;;;;;0.10;0.10;;;;;;;;;;4969041;28;20054;-69
2023/09/25 01:06:23;;;;;;;30.42;28.58;;;;;;;;;;4967177;28;20101;-69
2023/09/25 01:08:51;;;;;;;10.20;9.50;;;;;;;;;;4969399;28;20287;-70
2023/09/25 01:11:18;;;;;;;0.10;0.10;;;;;;;;;;4964262;28;20055;-69
2023/09/25 01:13:46;;;;;;;10.55;9.95;;;;;;;;;;4965285;28;20039;-70
2023/09/25 01:16:13;;;;;;;74.07;69.00;;;;;;;;;;4965177;28;20086;-68
2023/09/25 01:18:41;;;;;;;14.48;13.68;;;;;;;;;;4964394;28;20058;-69
2023/09/25 01:21:11;;;;;;;0.20;0.20;;;;;;;;;;4966721;28;20416;-69
2023/09/25 01:23:39;;;;;;;0.35;0.35;;;;;;;;;;4968465;28;20046;-69
2023/09/25 01:26:06;;;;;;;0.20;0.20;;;;;;;;;;4965559;28;20412;-69
2023/09/25 01:28:33;;;;;;;5.22;5.03;;;;;;;;;;4961564;28;20617;-68
2023/09/25 01:31:01;;;;;;;0.38;0.38;;;;;;;;;;4965944;28;20050;-69
2023/09/25 01:33:28;;;;;;;0.20;0.20;;;;;;;;;;4965439;28;20051;-69
2023/09/25 01:35:56;;;;;;;0.20;0.20;;;;;;;;;;4967405;28;20066;-69
2023/09/25 01:38:23;;;;;;;0.00;0.00;;;;;;;;;;4964866;28;20046;-70
2023/09/25 01:40:51;;;;;;;0.20;0.20;;;;;;;;;;4967662;28;20571;-70
2023/09/25 01:43:18;;;;;;;0.00;0.00;;;;;;;;;;4965569;28;20074;-69
2023/09/25 01:45:46;;;;;;;0.00;0.00;;;;;;;;;;4980050;28;20754;-69
2023/09/25 01:48:13;;;;;;;0.15;0.15;;;;;;;;;;4961777;28;20125;-69
2023/09/25 01:50:43;;;;;;;12.90;12.05;;;;;;;;;;4966435;28;20295;-69
2023/09/25 01:53:10;;;;;;;0.17;0.17;;;;;;;;;;4966200;28;20043;-70
2023/09/25 01:55:40;;;;;;;1.15;0.50;;;;;;;;;;4968098;28;20054;-69
2023/09/25 01:58:08;;;;;;;1.08;0.25;;;;;;;;;;4965499;28;20047;-69
2023/09/25 02:00:36;;;;;;;0.00;0.00;;;;;;;;;;4960569;28;20501;-69
2023/09/25 02:03:05;;;;;;;2.92;2.83;;;;;;;;;;4963442;28;20051;-69
2023/09/25 02:05:32;;;;;;;0.10;0.10;;;;;;;;;;4966098;28;20159;-70
2023/09/25 02:08:00;;;;;;;0.10;0.10;;;;;;;;;;4965393;28;20046;-70
2023/09/25 02:10:29;;;;;;;0.10;0.10;;;;;;;;;;4964732;28;20050;-70
2023/09/25 02:12:57;;;;;;;1.00;1.00;;;;;;;;;;4967373;28;20049;-70
2023/09/25 02:15:25;;;;;;;1.00;0.93;;;;;;;;;;4965028;28;20043;-70
2023/09/25 02:17:52;;;;;;;0.10;0.10;;;;;;;;;;4964039;28;20509;-70
2023/09/25 02:20:20;;;;;;;0.38;0.32;;;;;;;;;;4963734;28;20419;-69
2023/09/25 02:22:50;;;;;;;0.32;0.32;;;;;;;;;;4964658;28;20088;-70
2023/09/25 02:25:18;;;;;;;0.32;0.15;;;;;;;;;;4965574;28;20689;-70
2023/09/25 02:27:46;;;;;;;0.00;0.00;;;;;;;;;;4963903;28;20133;-71
2023/09/25 02:30:14;;;;;;;0.10;0.10;;;;;;;;;;4959431;28;20095;-70
2023/09/25 02:32:43;;;;;;;0.00;0.00;;;;;;;;;;4964011;28;20043;-70
2023/09/25 02:35:12;;;;;;;0.20;0.20;;;;;;;;;;4976621;23;20579;-76
2023/09/25 02:37:40;;;;;;;0.28;0.28;;;;;;;;;;5004699;28;20817;-73
2023/09/25 02:40:13;;;;;;;0.20;0.20;;;;;;;;;;5006410;28;20464;-75
2023/09/25 02:42:45;;;;;;;0.45;0.45;;;;;;;;;;5004497;28;20049;-74
2023/09/25 02:45:13;;;;;;;0.30;0.30;;;;;;;;;;5005778;28;20042;-75
2023/09/25 02:47:41;;;;;;;0.22;0.22;;;;;;;;;;5004785;28;20057;-75
2023/09/25 02:50:08;;;;;;;0.10;0.10;;;;;;;;;;5005264;28;20553;-75
2023/09/25 02:52:36;;;;;;;0.30;0.10;;;;;;;;;;5006477;28;20516;-75
2023/09/25 02:55:04;;;;;;;0.00;0.00;;;;;;;;;;5008609;28;20055;-74
2023/09/25 02:57:31;;;;;;;0.50;0.50;;;;;;;;;;5007133;28;20049;-74
2023/09/25 02:59:59;;;;;;;0.22;0.22;;;;;;;;;;5004865;28;20045;-75
2023/09/25 03:02:26;;;;;;;0.00;0.00;;;;;;;;;;5005213;28;20100;-75
2023/09/25 03:04:54;;;;;;;0.10;0.10;;;;;;;;;;5004232;28;20057;-74
2023/09/25 03:07:22;;;;;;;0.60;0.20;;;;;;;;;;5005756;28;20530;-75
2023/09/25 03:09:49;;;;;;;0.20;0.20;;;;;;;;;;5006107;28;20057;-76
2023/09/25 03:12:17;;;;;;;0.00;0.00;;;;;;;;;;5005143;28;20062;-75
2023/09/25 03:14:44;;;;;;;0.25;0.25;;;;;;;;;;5005974;28;20054;-74
2023/09/25 03:17:12;;;;;;;0.65;0.20;;;;;;;;;;5005619;28;20446;-75
2023/09/25 03:19:39;;;;;;;0.10;0.10;;;;;;;;;;5004854;28;20062;-75
2023/09/25 03:22:07;;;;;;;0.10;0.10;;;;;;;;;;5006428;28;20104;-75
2023/09/25 03:24:35;;;;;;;0.25;0.25;;;;;;;;;;5006368;28;20060;-75
2023/09/25 03:27:02;;;;;;;2.63;2.53;;;;;;;;;;5015849;28;20105;-75
2023/09/25 03:29:30;;;;;;;0.10;0.10;;;;;;;;;;5006128;28;20129;-76
2023/09/25 03:31:57;;;;;;;0.43;0.43;;;;;;;;;;5006028;28;20053;-76
2023/09/25 03:34:27;;;;;;;0.10;0.10;;;;;;;;;;5003896;28;20038;-75
2023/09/25 03:36:54;;;;;;;0.10;0.10;;;;;;;;;;5003151;28;20133;-75
2023/09/25 03:39:22;;;;;;;0.28;0.28;;;;;;;;;;5005914;28;20082;-76
2023/09/25 03:41:50;;;;;;;1.55;1.45;;;;;;;;;;5008013;28;20049;-76
2023/09/25 03:44:17;;;;;;;0.00;0.00;;;;;;;;;;5008915;28;20249;-76
2023/09/25 03:46:45;;;;;;;4.13;3.92;;;;;;;;;;5010334;28;20042;-75
2023/09/25 03:49:12;;;;;;;0.05;0.05;;;;;;;;;;5011914;28;20478;-75
2023/09/25 03:51:40;;;;;;;0.28;0.28;;;;;;;;;;5008050;28;20447;-75
2023/09/25 03:54:08;;;;;;;17.42;16.05;;;;;;;;;;5008122;28;20049;-75
2023/09/25 03:56:35;;;;;;;0.10;0.10;;;;;;;;;;5010013;28;20152;-75
2023/09/25 03:59:03;;;;;;;0.63;0.43;;;;;;;;;;5009657;28;20137;-75
2023/09/25 04:01:30;;;;;;;0.10;0.10;;;;;;;;;;5008037;28;20466;-74
2023/09/25 04:03:58;;;;;;;0.20;0.20;;;;;;;;;;5009751;28;20050;-74
2023/09/25 04:06:25;;;;;;;0.20;0.20;;;;;;;;;;5008408;28;20038;-75
2023/09/25 04:08:52;;;;;;;2.35;2.22;;;;;;;;;;5002398;28;20103;-75
2023/09/25 04:11:20;;;;;;;0.32;0.32;;;;;;;;;;5003480;28;20049;-74
2023/09/25 04:13:47;;;;;;;0.00;0.00;;;;;;;;;;5007434;28;20535;-75
2023/09/25 04:16:15;;;;;;;0.00;0.00;;;;;;;;;;5009218;28;20054;-75
2023/09/25 04:18:42;;;;;;;12.82;12.18;;;;;;;;;;5008332;28;20061;-74
2023/09/25 04:21:17;;;;;;;41.55;38.95;;;;;;;;;;5009292;28;20107;-75
2023/09/25 04:23:45;;;;;;;28.33;26.38;;;;;;;;;;5010561;28;20703;-74
2023/09/25 04:26:12;;;;;;;0.22;0.22;;;;;;;;;;5013267;28;20117;-75
2023/09/25 04:28:40;;;;;;;162.25;150.98;;;;;;;;;;5011864;28;20149;-74
2023/09/25 04:31:08;;;;;;;203.75;188.55;;;;;;;;;;5012374;28;20048;-76
2023/09/25 04:33:35;;;;;;;0.15;0.15;;;;;;;;;;5012122;28;20045;-75
2023/09/25 04:36:03;;;;;;;0.40;0.40;;;;;;;;;;5026598;28;20054;-76
2023/09/25 04:38:31;;;;;;;0.22;0.22;;;;;;;;;;5012259;28;20050;-74
2023/09/25 04:40:59;;;;;;;0.10;0.10;;;;;;;;;;5013361;28;20057;-74
2023/09/25 04:43:26;;;;;;;22.20;20.23;;;;;;;;;;5015730;28;20050;-76
2023/09/25 04:45:55;;;;;;;0.00;0.00;;;;;;;;;;5012963;28;20123;-74
2023/09/25 04:48:23;;;;;;;0.45;0.45;;;;;;;;;;5011268;28;20133;-74
2023/09/25 04:50:50;;;;;;;0.20;0.20;;;;;;;;;;5011836;28;20052;-75
2023/09/25 04:53:22;;;;;;;7.85;7.32;;;;;;;;;;5011249;28;20050;-75
2023/09/25 04:55:50;;;;;;;0.10;0.10;;;;;;;;;;5008361;28;20435;-76
2023/09/25 04:58:17;;;;;;;1.35;1.35;;;;;;;;;;5008733;28;20065;-75
2023/09/25 05:00:45;;;;;;;0.22;0.22;;;;;;;;;;5008277;28;20507;-75
2023/09/25 05:03:12;;;;;;;0.10;0.10;;;;;;;;;;5007431;28;20070;-75
2023/09/25 05:05:41;;;;;;;0.10;0.10;;;;;;;;;;5008318;28;20426;-75
2023/09/25 05:08:08;;;;;;;0.38;0.38;;;;;;;;;;5008607;28;20419;-75
2023/09/25 05:10:36;;;;;;;36.08;30.95;;;;;;;;;;5007232;28;20048;-75
2023/09/25 05:13:03;;;;;;;1.63;1.60;;;;;;;;;;5008300;28;20046;-75
2023/09/25 05:15:31;;;;;;;3.65;3.45;;;;;;;;;;5007811;28;20093;-75
2023/09/25 05:17:58;;;;;;;0.50;0.50;;;;;;;;;;4999405;28;20131;-74
2023/09/25 05:20:26;;;;;;;0.43;0.43;;;;;;;;;;5004045;28;20066;-74
2023/09/25 05:22:56;;;;;;;54.78;51.28;;;;;;;;;;5004137;28;20046;-75
2023/09/25 05:25:24;;;;;;;2.28;2.17;;;;;;;;;;5003481;28;20049;-74
2023/09/25 05:27:52;;;;;;;6.22;5.90;;;;;;;;;;5000784;28;20042;-74
2023/09/25 05:30:20;;;;;;;10.80;10.07;;;;;;;;;;5000607;28;20324;-75
2023/09/25 05:32:49;;;;;;;4.30;4.13;;;;;;;;;;5001421;28;20049;-74
2023/09/25 05:35:17;;;;;;;0.52;0.45;;;;;;;;;;5003988;28;20044;-75
2023/09/25 05:37:45;;;;;;;0.43;0.43;;;;;;;;;;5006521;28;20119;-75
2023/09/25 05:40:14;;;;;;;1.45;0.40;;;;;;;;;;5009125;28;20594;-75
2023/09/25 05:42:50;;;;;;;0.28;0.28;;;;;;;;;;5005833;28;20137;-75
2023/09/25 05:45:20;;;;;;;0.05;0.05;;;;;;;;;;5007038;28;20600;-76
2023/09/25 05:47:48;;;;;;;0.10;0.10;;;;;;;;;;5008284;28;20451;-75
2023/09/25 05:50:16;;;;;;;0.88;0.50;;;;;;;;;;5007649;28;20049;-75
2023/09/25 05:52:43;;;;;;;0.40;0.40;;;;;;;;;;5007886;28;20379;-76
2023/09/25 05:55:11;;;;;;;0.00;0.00;;;;;;;;;;5007783;28;20133;-76
2023/09/25 05:57:39;;;;;;;0.10;0.10;;;;;;;;;;5007390;28;20061;-75
2023/09/25 06:00:14;;;;;;;0.40;0.40;;;;;;;;;;5003152;28;20053;-75
2023/09/25 06:02:43;;;;;;;0.30;0.30;;;;;;;;;;5004141;28;20050;-73
2023/09/25 06:05:14;;;;;;;0.32;0.30;;;;;;;;;;5006501;28;20054;-75
2023/09/25 06:07:45;;;;;;;0.40;0.40;;;;;;;;;;5003511;28;20050;-75
2023/09/25 06:10:13;;;;;;;0.10;0.10;;;;;;;;;;5007921;28;20038;-76
2023/09/25 06:12:40;;;;;;;0.40;0.40;;;;;;;;;;5008662;28;20105;-75
2023/09/25 06:15:11;;;;;;;0.10;0.10;;;;;;;;;;5007212;28;20459;-75
2023/09/25 06:17:39;;;;;;;2.07;1.97;;;;;;;;;;5006274;28;20053;-75
2023/09/25 06:20:15;;;;;;;0.38;0.38;;;;;;;;;;5007077;28;20061;-75
2023/09/25 06:22:46;;;;;;;0.10;0.10;;;;;;;;;;5005077;28;20052;-75
2023/09/25 06:25:17;;;;;;;81.68;76.30;;;;;;;;;;5008992;28;20038;-76
2023/09/25 06:27:46;;;;;;;197.45;184.10;;;;;;;;;;5012649;28;20073;-75
2023/09/25 06:30:14;;;;;;;0.50;0.50;;;;;;;;;;5008185;28;20056;-75
2023/09/25 06:32:42;;;;;;;0.55;0.55;;;;;;;;;;5011536;28;20046;-75
2023/09/25 06:35:09;;;;;;;1.27;0.43;;;;;;;;;;5011284;28;20403;-76
2023/09/25 06:37:37;;;;;;;0.77;0.52;;;;;;;;;;5008009;28;20046;-75
2023/09/25 06:40:10;;;;;;;6.15;5.75;;;;;;;;;;5003687;28;20133;-74
2023/09/25 06:42:39;;;;;;;92.13;86.10;;;;;;;;;;5008167;28;20109;-75
2023/09/25 06:45:08;;;;;;;82.63;76.10;;;;;;;;;;5002318;28;20053;-75
2023/09/25 06:47:37;;;;;;;60.60;55.65;;;;;;;;;;5000679;28;20038;-74
2023/09/25 06:50:05;;;;;;;27.92;26.17;;;;;;;;;;5005391;28;20355;-74
2023/09/25 06:52:33;;;;;;;147.10;136.68;;;;;;;;;;5007230;28;20045;-73
2023/09/25 06:55:00;;;;;;;72.30;67.90;;;;;;;;;;5009036;28;20582;-75
2023/09/25 06:57:28;;;;;;;0.77;0.77;;;;;;;;;;5008964;28;20091;-76
2023/09/25 06:59:56;;;;;;;1.15;0.40;;;;;;;;;;5008094;28;20115;-75
2023/09/25 07:02:25;;;;;;;0.20;0.20;;;;;;;;;;5006186;28;20426;-75
2023/09/25 07:04:53;;;;;;;0.10;0.10;;;;;;;;;;5003246;28;20422;-73
2023/09/25 07:07:21;;;;;;;21.13;20.15;;;;;;;;;;5003296;28;20056;-75
2023/09/25 07:09:48;;;;;;;0.30;0.30;;;;;;;;;;5005829;28;20073;-75
2023/09/25 07:12:18;;;;;;;0.22;0.22;;;;;;;;;;5006345;28;20048;-76
2023/09/25 07:14:53;;;;;;;0.10;0.10;;;;;;;;;;5006966;28;20050;-75
2023/09/25 07:17:20;;;;;;;4.95;4.55;;;;;;;;;;5004384;28;20131;-75
2023/09/25 07:19:51;;;;;;;8.25;7.50;;;;;;;;;;5007423;28;20515;-75
2023/09/25 07:22:22;;;;;;;0.20;0.20;;;;;;;;;;5008429;28;20503;-75
2023/09/25 07:24:50;;;;;;;0.10;0.10;;;;;;;;;;5007215;28;20181;-75
2023/09/25 07:27:18;;;;;;;1.48;1.38;;;;;;;;;;5008014;28;20133;-75
2023/09/25 07:29:46;;;;;;;0.52;0.52;;;;;;;;;;5007607;28;20052;-75
2023/09/25 07:32:14;;;;;;;1.15;1.15;;;;;;;;;;5006388;28;20437;-74
2023/09/25 07:34:42;;;;;;;7.00;6.60;;;;;;;;;;5007978;28;20057;-76
2023/09/25 07:37:12;;;;;;;0.28;0.28;;;;;;;;;;5006370;28;20053;-74
2023/09/25 07:39:43;;;;;;;0.10;0.10;;;;;;;;;;5006963;28;20185;-75
2023/09/25 07:42:12;;;;;;;0.93;0.50;;;;;;;;;;5007747;28;20053;-76
2023/09/25 07:44:40;;;;;;;0.47;0.47;;;;;;;;;;5005021;28;20335;-76
2023/09/25 07:47:10;;;;;;;10.75;9.30;;;;;;;;;;5005751;28;20112;-76
2023/09/25 07:49:41;;;;;;;0.10;0.10;;;;;;;;;;5006412;28;20069;-78
2023/09/25 07:52:19;;;;;;;0.25;0.25;;;;;;;;;;5006679;28;20274;-74
2023/09/25 07:54:48;;;;;;;13.13;12.30;;;;;;;;;;5006357;28;20038;-76
2023/09/25 07:57:19;;;;;;;0.00;0.00;;;;;;;;;;5003647;28;20050;-76
2023/09/25 07:59:46;;;;;;;0.70;0.38;;;;;;;;;;5005385;28;20054;-76
2023/09/25 08:02:19;;;;;;;0.10;0.10;;;;;;;;;;5006431;28;20100;-76
2023/09/25 08:04:50;;;;;;;0.30;0.30;;;;;;;;;;5004376;28;20101;-77
2023/09/25 08:07:18;;;;;;;0.47;0.47;;;;;;;;;;5005168;28;20034;-75
2023/09/25 08:09:46;;;;;;;0.10;0.10;;;;;;;;;;5005677;28;20049;-76
2023/09/25 08:12:14;;;;;;;0.47;0.47;;;;;;;;;;5005944;28;20038;-76
2023/09/25 08:14:41;;;;;;;0.00;0.00;;;;;;;;;;5006650;28;20499;-76
2023/09/25 08:17:09;;;;;;;1.45;1.45;;;;;;;;;;5007911;28;20054;-76
2023/09/25 08:19:36;;;;;;;0.35;0.35;;;;;;;;;;5006440;28;20042;-74
2023/09/25 08:22:04;;;;;;;0.20;0.20;;;;;;;;;;5006168;28;20058;-76
2023/09/25 08:24:32;;;;;;;17.27;15.43;;;;;;;;;;5006594;28;20061;-76
2023/09/25 08:26:59;;;;;;;0.20;0.20;;;;;;;;;;5002647;28;20069;-76
2023/09/25 08:29:27;;;;;;;0.00;0.00;;;;;;;;;;5008971;28;20129;-75
2023/09/25 08:31:55;;;;;;;0.75;0.20;;;;;;;;;;5009455;28;20060;-75
2023/09/25 08:34:23;;;;;;;0.15;0.15;;;;;;;;;;5010424;28;20108;-75
2023/09/25 08:36:50;;;;;;;57.60;53.33;;;;;;;;;;5049652;23;20049;-75
2023/09/25 08:39:19;;;;;;;10.45;9.25;;;;;;;;;;5017949;28;20073;-75
2023/09/25 08:41:46;;;;;;;0.00;0.00;;;;;;;;;;5010992;28;20053;-76
2023/09/25 08:44:16;;;;;;;8.90;8.38;;;;;;;;;;5015597;28;20092;-75
2023/09/25 08:46:44;;;;;;;0.52;0.45;;;;;;;;;;5010254;28;20042;-75
2023/09/25 08:49:12;;;;;;;0.03;0.03;;;;;;;;;;5020926;28;20046;-75
2023/09/25 08:51:39;;;;;;;0.00;0.00;;;;;;;;;;5006421;28;20292;-76
2023/09/25 08:54:07;;;;;;;66.00;61.67;;;;;;;;;;5016036;28;20061;-76
2023/09/25 08:56:35;;;;;;;31.80;28.88;;;;;;;;;;5013649;28;20108;-77
2023/09/25 08:59:05;;;;;;;0.45;0.45;;;;;;;;;;5003648;28;20057;-77
2023/09/25 09:01:34;;;;;;;2.27;2.13;;;;;;;;;;5013246;28;20060;-75
2023/09/25 09:04:03;;;;;;;0.10;0.10;;;;;;;;;;5014457;28;20041;-77
2023/09/25 09:06:31;;;;;;;0.10;0.10;;;;;;;;;;5026926;28;20050;-79
2023/09/25 09:08:58;;;;;;;0.65;0.65;;;;;;;;;;5019817;28;20042;-78
2023/09/25 09:11:27;;;;;;;3.30;3.10;;;;;;;;;;5010313;28;20470;-77
2023/09/25 09:13:55;;;;;;;0.40;0.40;;;;;;;;;;5022983;28;20087;-78
2023/09/25 09:16:23;;;;;;;15.15;14.00;;;;;;;;;;5016723;28;20411;-78
2023/09/25 09:19:06;;;;;;;1.77;1.75;;;;;;;;;;5018158;28;20057;-78
2023/09/25 09:21:33;;;;;;;0.80;0.80;;;;;;;;;;5011993;28;20050;-80
2023/09/25 09:24:01;;;;;;;0.00;0.00;;;;;;;;;;5013904;28;20462;-79
2023/09/25 09:26:28;;;;;;;0.20;0.20;;;;;;;;;;5021281;28;20037;-77
2023/09/25 09:28:56;;;;;;;81.75;71.15;;;;;;;;;;5010020;28;20038;-78
2023/09/25 09:31:23;;;;;;;0.40;0.32;;;;;;;;;;5016032;28;20045;-78
2023/09/25 09:33:55;;;;;;;0.60;0.60;;;;;;;;;;5006109;28;20048;-79
2023/09/25 09:36:23;;;;;;;162.50;128.05;;;;;;;;;;5013593;28;20052;-78
2023/09/25 09:38:53;;;;;;;3.05;2.90;;;;;;;;;;5016040;28;20450;-77
2023/09/25 09:41:22;;;;;;;0.00;0.00;;;;;;;;;;5012736;28;20061;-78
2023/09/25 09:43:49;;;;;;;0.00;0.00;;;;;;;;;;5014063;28;20472;-78
2023/09/25 09:46:17;;;;;;;0.30;0.30;;;;;;;;;;5021311;28;20076;-79
2023/09/25 09:48:46;;;;;;;0.30;0.30;;;;;;;;;;5014127;28;20045;-78
2023/09/25 09:51:16;;;;;;;0.88;0.88;;;;;;;;;;5019060;28;20033;-79
2023/09/25 09:53:44;;;;;;;0.03;0.03;;;;;;;;;;5008079;28;20060;-79
2023/09/25 09:56:12;;;;;;;0.00;0.00;;;;;;;;;;5020281;28;20042;-78
2023/09/25 09:58:39;;;;;;;0.25;0.25;;;;;;;;;;5014854;28;20567;-78
2023/09/25 10:01:07;;;;;;;4.85;4.55;;;;;;;;;;5011908;28;20045;-79
2023/09/25 10:03:35;;;;;;;27.27;25.08;;;;;;;;;;5012187;28;20063;-78
2023/09/25 10:06:02;;;;;;;7.45;7.05;;;;;;;;;;5013994;28;20124;-77
2023/09/25 10:08:31;;;;;;;0.13;0.13;;;;;;;;;;5018610;28;20049;-76
2023/09/25 10:11:14;;;;;;;0.08;0.08;;;;;;;;;;5012218;28;20610;-76
2023/09/25 10:13:42;;;;;;;0.00;0.00;;;;;;;;;;5018072;28;20307;-76
2023/09/25 10:16:12;;;;;;;14.23;12.20;;;;;;;;;;5014578;28;20045;-76
2023/09/25 10:18:42;;;;;;;0.38;0.38;;;;;;;;;;5014424;28;20053;-75
2023/09/25 10:21:14;;;;;;;0.10;0.10;;;;;;;;;;5011287;28;20046;-76
2023/09/25 10:23:50;;;;;;;1.48;1.42;;;;;;;;;;5015209;28;20081;-78
2023/09/25 10:26:17;;;;;;;0.95;0.95;;;;;;;;;;5015893;28;20041;-76
2023/09/25 10:28:45;;;;;;;32.97;30.23;;;;;;;;;;5009794;28;20057;-77
2023/09/25 10:31:19;;;;;;;0.38;0.38;;;;;;;;;;5010163;28;20209;-76
2023/09/25 10:33:57;;;;;;;3.67;3.47;;;;;;;;;;5006532;28;20038;-76
2023/09/25 10:36:37;;;;;;;0.73;0.45;;;;;;;;;;5014907;28;20061;-76
2023/09/25 10:39:06;;;;;;;1.13;1.08;;;;;;;;;;5021611;28;20054;-77
2023/09/25 10:41:33;;;;;;;0.10;0.10;;;;;;;;;;5008072;28;20045;-76
2023/09/25 10:44:01;;;;;;;0.30;0.30;;;;;;;;;;5019215;28;20552;-76
2023/09/25 10:46:28;;;;;;;0.00;0.00;;;;;;;;;;5016384;28;20037;-77
2023/09/25 10:48:56;;;;;;;13.82;12.65;;;;;;;;;;5015314;28;20049;-76
2023/09/25 10:51:24;;;;;;;0.00;0.00;;;;;;;;;;5005899;28;20129;-76
2023/09/25 10:53:52;;;;;;;4.20;4.00;;;;;;;;;;5016205;28;20045;-76
2023/09/25 10:56:20;;;;;;;0.35;0.35;;;;;;;;;;5013538;28;20042;-76
2023/09/25 10:58:50;;;;;;;0.10;0.10;;;;;;;;;;5014522;28;20506;-76
2023/09/25 11:01:24;;;;;;;0.40;0.40;;;;;;;;;;5010142;28;20046;-77
2023/09/25 11:03:53;;;;;;;0.10;0.10;;;;;;;;;;5001875;28;20053;-77
2023/09/25 11:06:21;;;;;;;0.30;0.30;;;;;;;;;;5012852;28;20042;-76
2023/09/25 11:08:57;;;;;;;0.73;0.73;;;;;;;;;;5016061;28;20052;-76
2023/09/25 11:11:24;;;;;;;3.00;2.85;;;;;;;;;;5017790;28;20049;-75
2023/09/25 11:13:53;;;;;;;0.88;0.88;;;;;;;;;;5022177;28;20056;-78
2023/09/25 11:16:20;;;;;;;0.00;0.00;;;;;;;;;;5010190;28;20080;-76
2023/09/25 11:18:50;;;;;;;0.20;0.20;;;;;;;;;;5009330;28;20065;-77
2023/09/25 11:21:18;;;;;;;2.72;0.60;;;;;;;;;;5013059;28;20569;-78
2023/09/25 11:23:46;;;;;;;0.13;0.13;;;;;;;;;;5015918;28;20104;-76
2023/09/25 11:26:13;;;;;;;35.53;33.33;;;;;;;;;;5014991;28;20377;-76
2023/09/25 11:28:41;;;;;;;0.10;0.10;;;;;;;;;;5018238;28;20183;-76
2023/09/25 11:31:08;;;;;;;0.10;0.00;;;;;;;;;;5015068;28;20301;-78
2023/09/25 11:33:36;;;;;;;3.17;2.90;;;;;;;;;;5017364;28;20046;-77
2023/09/25 11:36:10;;;;;;;0.10;0.10;;;;;;;;;;5005077;28;20045;-80
2023/09/25 11:38:37;;;;;;;0.43;0.43;;;;;;;;;;5015275;28;20111;-79
2023/09/25 11:41:05;;;;;;;0.40;0.40;;;;;;;;;;5005738;28;20053;-78
2023/09/25 11:43:33;;;;;;;0.08;0.08;;;;;;;;;;5015464;28;20042;-77
2023/09/25 11:46:00;;;;;;;0.35;0.35;;;;;;;;;;5007901;28;20048;-78
2023/09/25 11:48:28;;;;;;;0.10;0.10;;;;;;;;;;5013902;28;20137;-78
2023/09/25 11:50:56;;;;;;;0.00;0.00;;;;;;;;;;5010871;28;20045;-77
2023/09/25 11:53:24;;;;;;;0.00;0.00;;;;;;;;;;5012056;28;20046;-77
2023/09/25 11:55:51;;;;;;;0.10;0.10;;;;;;;;;;5015884;28;20454;-78
2023/09/25 11:58:19;;;;;;;0.00;0.00;;;;;;;;;;5008856;28;20427;-78
2023/09/25 12:00:46;;;;;;;0.20;0.20;;;;;;;;;;5010316;28;20464;-77
2023/09/25 12:03:14;;;;;;;1.27;1.23;;;;;;;;;;5005639;28;20053;-78
2023/09/25 12:05:42;;;;;;;0.05;0.05;;;;;;;;;;5015037;28;20110;-77
2023/09/25 12:08:12;;;;;;;0.00;0.00;;;;;;;;;;5018790;28;20404;-78
2023/09/25 12:10:40;;;;;;;0.20;0.20;;;;;;;;;;5020198;28;20817;-77
2023/09/25 12:13:07;;;;;;;0.20;0.20;;;;;;;;;;5013380;28;20084;-79
2023/09/25 12:15:36;;;;;;;0.00;0.00;;;;;;;;;;5012398;28;20088;-78
2023/09/25 12:18:03;;;;;;;0.10;0.10;;;;;;;;;;5016287;28;20047;-79
2023/09/25 12:20:31;;;;;;;0.00;0.00;;;;;;;;;;5014002;28;20038;-78
2023/09/25 12:22:59;;;;;;;0.00;0.00;;;;;;;;;;5018418;28;20533;-77
2023/09/25 12:25:27;;;;;;;0.10;0.10;;;;;;;;;;5014602;28;20100;-77
2023/09/25 12:27:55;;;;;;;0.10;0.10;;;;;;;;;;5016570;28;20463;-77
2023/09/25 12:30:22;;;;;;;0.00;0.00;;;;;;;;;;5017000;28;20121;-78
2023/09/25 12:32:50;;;;;;;0.00;0.00;;;;;;;;;;5015089;28;20042;-77
2023/09/25 12:35:18;;;;;;;0.00;0.00;;;;;;;;;;5006493;28;20050;-77
2023/09/25 12:37:47;;;;;;;0.13;0.00;;;;;;;;;;5014212;28;20046;-77
2023/09/25 12:40:15;;;;;;;0.10;0.10;;;;;;;;;;5016054;28;20041;-77
2023/09/25 12:42:44;;;;;;;0.00;0.00;;;;;;;;;;5011098;28;20049;-79
2023/09/25 12:45:22;;;;;;;0.10;0.10;;;;;;;;;;5018695;28;20115;-77
2023/09/25 12:47:51;;;;;;;0.10;0.00;;;;;;;;;;5022288;28;20050;-77
2023/09/25 12:50:20;;;;;;;0.28;0.28;;;;;;;;;;5015899;28;20666;-77
2023/09/25 12:52:48;;;;;;;0.00;0.00;;;;;;;;;;5015875;28;20511;-78
2023/09/25 12:55:15;;;;;;;0.00;0.00;;;;;;;;;;5022343;28;20065;-78
2023/09/25 12:57:43;;;;;;;14.05;13.25;;;;;;;;;;5012831;28;20053;-77
2023/09/25 13:00:10;;;;;;;0.00;0.00;;;;;;;;;;5011870;28;20045;-77
2023/09/25 13:02:40;;;;;;;0.00;0.00;;;;;;;;;;5014246;28;20128;-78
2023/09/25 13:05:11;;;;;;;2.10;2.00;;;;;;;;;;5015378;28;20040;-77
2023/09/25 13:07:38;;;;;;;0.15;0.15;;;;;;;;;;5015393;28;20042;-77
2023/09/25 13:10:07;;;;;;;0.00;0.00;;;;;;;;;;5022821;28;20046;-78
2023/09/25 13:12:36;;;;;;;0.00;0.00;;;;;;;;;;5012658;28;20121;-78
2023/09/25 13:15:04;;;;;;;0.28;0.28;;;;;;;;;;5017683;28;20420;-78
2023/09/25 13:17:32;;;;;;;2.17;2.08;;;;;;;;;;5013539;28;20046;-78
2023/09/25 13:19:59;;;;;;;0.10;0.10;;;;;;;;;;5018162;28;20067;-78
2023/09/25 13:22:29;;;;;;;0.03;0.03;;;;;;;;;;5012735;28;20037;-77
2023/09/25 13:25:04;;;;;;;0.00;0.00;;;;;;;;;;5011157;28;20045;-77
2023/09/25 13:27:32;;;;;;;0.45;0.45;;;;;;;;;;5016008;28;20444;-77
2023/09/25 13:29:59;;;;;;;0.00;0.00;;;;;;;;;;5014060;28;20065;-77
2023/09/25 13:32:27;;;;;;;0.00;0.00;;;;;;;;;;5015812;28;20045;-77
2023/09/25 13:34:54;;;;;;;0.00;0.00;;;;;;;;;;5019255;28;20249;-77
2023/09/25 13:37:22;;;;;;;0.00;0.00;;;;;;;;;;5017415;28;20510;-78
2023/09/25 13:39:50;;;;;;;0.00;0.00;;;;;;;;;;5022805;28;20055;-77
2023/09/25 13:42:17;;;;;;;0.00;0.00;;;;;;;;;;5007380;28;20069;-77
2023/09/25 13:44:45;;;;;;;0.00;0.00;;;;;;;;;;5016871;28;20488;-77
2023/09/25 13:47:12;;;;;;;0.00;0.00;;;;;;;;;;5024507;28;20045;-77
2023/09/25 13:49:43;;;;;;;0.00;0.00;;;;;;;;;;5015385;28;20121;-77
2023/09/25 13:52:12;;;;;;;0.10;0.10;;;;;;;;;;5024444;28;20045;-77
2023/09/25 13:54:39;;;;;;;1.55;0.13;;;;;;;;;;5024050;28;20046;-77
2023/09/25 13:57:08;;;;;;;0.00;0.00;;;;;;;;;;5016512;28;20060;-77
2023/09/25 13:59:40;;;;;;;0.00;0.00;;;;;;;;;;5019843;28;20053;-77
2023/09/25 14:02:07;;;;;;;0.00;0.00;;;;;;;;;;5014860;28;20107;-77
2023/09/25 14:04:34;;;;;;;0.00;0.00;;;;;;;;;;5012245;28;20069;-78
2023/09/25 14:07:02;;;;;;;0.28;0.28;;;;;;;;;;5015535;28;20475;-77
2023/09/25 14:09:30;;;;;;;0.00;0.00;;;;;;;;;;5013832;28;20045;-78
2023/09/25 14:11:57;;;;;;;0.00;0.00;;;;;;;;;;5018529;28;20479;-78
2023/09/25 14:14:39;;;;;;;0.15;0.15;;;;;;;;;;5021536;28;20033;-78
2023/09/25 14:17:06;;;;;;;;;;;;;;;;;;5016484;28;20045;-78
2023/09/25 14:19:35;;;;;;;0.75;0.20;;;;;;;;;;5019254;28;20410;-78
2023/09/25 14:22:04;;;;;;;0.00;0.00;;;;;;;;;;5023894;28;20049;-78
2023/09/25 14:24:32;;;;;;;0.00;0.00;;;;;;;;;;5022951;28;20045;-78
2023/09/25 14:27:00;;;;;;;0.00;0.00;;;;;;;;;;5025897;28;20058;-77
2023/09/25 14:29:29;;;;;;;0.08;0.08;;;;;;;;;;5021147;28;20042;-78
2023/09/25 14:31:56;;;;;;;0.10;0.10;;;;;;;;;;5025093;28;20049;-78
2023/09/25 14:34:24;;;;;;;0.10;0.10;;;;;;;;;;5019451;28;20045;-78
2023/09/25 14:36:52;;;;;;;1.38;1.33;;;;;;;;;;5025891;22;20077;-74
2023/09/25 14:39:24;;;;;;;0.13;0.13;;;;;;;;;;4980302;28;20125;-75
2023/09/25 14:41:52;;;;;;;0.13;0.13;;;;;;;;;;4976313;28;20061;-75
2023/09/25 14:44:19;;;;;;;0.00;0.00;;;;;;;;;;4974989;28;20602;-75
2023/09/25 14:46:47;;;;;;;0.10;0.10;;;;;;;;;;4979531;28;20050;-76
2023/09/25 14:49:14;;;;;;;0.00;0.00;;;;;;;;;;4976255;28;20069;-74